Time;durP1;ratioP1;P1;durP2;ratioP2;P2;SDS_P1;SDS_P2;PMS_P1;PMS_P2;Temp;Humidity;BMP_temperature;BMP_pressure;BME280_temperature;BME280_humidity;BME280_pressure;Samples;Min_cycle;Max_cycle;Signal;HPM_P1;HPM_P2
2022/06/13 00:00:34;;;;;;;3.87;3.47;;;;;;;21.53;75.51;99180.13;5067563;28;20219;-64
2022/06/13 00:03:02;;;;;;;3.83;3.50;;;;;;;21.57;74.95;99187.81;5050033;28;20188;-65
2022/06/13 00:05:29;;;;;;;4.23;3.83;;;;;;;21.51;75.26;99176.69;5050255;28;20188;-65
2022/06/13 00:07:56;;;;;;;5.37;3.73;;;;;;;21.62;74.97;99191.13;5050182;28;20191;-64
2022/06/13 00:10:24;;;;;;;3.77;3.47;;;;;;;21.56;74.85;99190.47;5067299;28;20234;-64
2022/06/13 00:12:51;;;;;;;3.93;3.60;;;;;;;21.60;74.24;99192.06;5069994;28;20188;-65
2022/06/13 00:15:18;;;;;;;4.57;3.97;;;;;;;21.56;74.81;99193.94;5069756;28;20195;-65
2022/06/13 00:17:45;;;;;;;4.68;3.53;;;;;;;21.63;74.14;99190.22;5068964;28;20512;-65
2022/06/13 00:20:13;;;;;;;5.47;3.40;;;;;;;21.66;73.92;99190.13;5070091;28;20192;-65
2022/06/13 00:22:40;;;;;;;3.73;3.43;;;;;;;21.64;74.07;99186.72;5053284;28;20642;-64
2022/06/13 00:25:08;;;;;;;4.30;3.53;;;;;;;21.59;74.62;99183.38;5049720;28;20195;-65
2022/06/13 00:27:37;;;;;;;4.75;3.85;;;;;;;21.60;74.34;99179.84;5056096;28;20449;-65
2022/06/13 00:30:05;;;;;;;3.60;3.30;;;;;;;21.72;73.61;99174.22;5069685;28;20192;-65
2022/06/13 00:32:32;;;;;;;3.50;3.20;;;;;;;21.69;74.02;99170.84;5069997;28;20184;-65
2022/06/13 00:34:59;;;;;;;4.27;3.87;;;;;;;21.67;73.74;99167.44;5069796;28;20203;-64
2022/06/13 00:37:26;;;;;;;3.57;3.27;;;;;;;21.50;73.63;99154.94;5069972;28;20202;-65
2022/06/13 00:39:53;;;;;;;10.57;3.67;;;;;;;21.54;74.19;99171.34;5069847;28;20195;-65
2022/06/13 00:42:22;;;;;;;8.47;3.60;;;;;;;21.57;73.83;99164.28;5069679;28;20613;-64
2022/06/13 00:45:15;;;;;;;4.43;3.33;;;;;;;21.59;74.11;99169.47;5069986;28;20209;-65
2022/06/13 00:47:44;;;;;;;4.27;3.70;;;;;;;21.64;73.44;99173.63;5073602;28;20309;-65
2022/06/13 00:50:16;;;;;;;4.70;3.50;;;;;;;21.66;73.69;99181.41;5072371;28;20436;-65
2022/06/13 00:52:48;;;;;;;3.90;3.60;;;;;;;21.74;73.52;99175.03;5073616;28;20241;-66
2022/06/13 00:55:21;;;;;;;3.67;3.37;;;;;;;21.69;74.10;99186.53;5073688;28;20210;-65
2022/06/13 00:57:48;;;;;;;3.90;3.50;;;;;;;21.68;74.67;99185.69;5073768;28;20199;-65
2022/06/13 01:00:18;;;;;;;3.73;3.43;;;;;;;21.66;74.66;99186.66;5073329;28;20192;-66
2022/06/13 01:02:48;;;;;;;3.60;3.30;;;;;;;21.68;74.23;99190.06;5073356;28;20306;-65
2022/06/13 01:05:19;;;;;;;4.33;3.77;;;;;;;21.65;73.85;99182.31;5073207;28;20196;-65
2022/06/13 01:07:46;;;;;;;3.97;3.50;;;;;;;21.58;73.96;99178.19;5073378;28;20199;-65
2022/06/13 01:12:58;;;;;;;3.87;3.50;;;;;;;21.67;73.06;99175.28;5073426;28;21055;-65
2022/06/13 01:15:45;;;;;;;3.70;3.40;;;;;;;21.66;73.80;99177.03;5073284;28;20269;-65
2022/06/13 01:18:28;;;;;;;3.60;3.30;;;;;;;21.63;73.69;99177.16;5073261;28;20217;-65
2022/06/13 01:21:08;;;;;;;4.37;4.07;;;;;;;21.67;73.36;99185.75;5072956;28;20361;-65
2022/06/13 01:23:57;;;;;;;4.03;3.63;;;;;;;21.75;72.11;99186.34;5072857;28;20612;-65
2022/06/13 01:27:17;;;;;;;3.58;3.38;;;;;;;21.78;71.83;99191.47;5073056;28;20353;-65
2022/06/13 01:29:51;;;;;;;3.60;3.30;;;;;;;21.72;71.72;99195.16;5030847;28;20288;-65
2022/06/13 01:32:31;;;;;;;3.60;3.40;;;;;;;21.70;72.40;99196.06;5071701;28;20194;-65
2022/06/13 01:35:12;;;;;;;3.60;3.30;;;;;;;21.75;71.90;99197.63;5072788;28;20573;-65
2022/06/13 01:37:58;;;;;;;5.50;3.27;;;;;;;21.77;72.41;99195.84;5072684;28;20578;-65
2022/06/13 01:40:33;;;;;;;4.17;3.77;;;;;;;21.75;72.97;99189.78;5072528;28;20593;-65
2022/06/13 01:43:10;;;;;;;3.90;3.60;;;;;;;21.69;73.81;99197.88;5072291;28;20218;-65
2022/06/13 01:45:41;;;;;;;3.90;3.60;;;;;;;21.66;74.03;99200.59;5071479;28;20196;-65
2022/06/13 01:48:17;;;;;;;4.73;3.90;;;;;;;21.62;73.88;99196.34;5072237;28;20192;-66
2022/06/13 01:50:54;;;;;;;3.87;3.50;;;;;;;21.58;74.22;99189.53;5052228;28;20191;-65
2022/06/13 01:53:29;;;;;;;3.90;3.60;;;;;;;21.51;74.82;99194.97;5052091;28;20196;-66
2022/06/13 01:56:03;;;;;;;4.53;3.60;;;;;;;21.51;74.95;99188.00;5052212;28;20198;-65
2022/06/13 01:58:40;;;;;;;4.57;3.77;;;;;;;21.46;74.44;99186.44;5051391;28;20206;-65
2022/06/13 02:01:14;;;;;;;4.70;3.60;;;;;;;21.46;73.83;99189.06;5052129;28;20215;-65
2022/06/13 02:03:46;;;;;;;5.03;4.13;;;;;;;21.40;73.92;99184.88;5052367;28;20528;-65
2022/06/13 02:06:19;;;;;;;3.83;3.53;;;;;;;21.40;73.57;99181.44;5051822;28;20203;-65
2022/06/13 02:08:50;;;;;;;3.80;3.50;;;;;;;21.42;73.19;99188.31;5053537;28;20199;-65
2022/06/13 02:11:21;;;;;;;4.50;3.60;;;;;;;21.42;73.42;99177.88;5072011;28;20184;-63
2022/06/13 02:13:53;;;;;;;3.93;3.50;;;;;;;21.40;73.25;99184.03;5071845;28;20218;-65
2022/06/13 02:16:24;;;;;;;4.50;4.13;;;;;;;21.41;73.20;99183.13;5072353;28;20199;-65
2022/06/13 02:19:00;;;;;;;4.43;4.03;;;;;;;21.42;73.19;99175.25;5071950;28;20198;-64
2022/06/13 02:21:36;;;;;;;3.57;3.27;;;;;;;21.41;73.20;99181.38;5071856;28;20698;-65
2022/06/13 02:24:07;;;;;;;4.80;3.67;;;;;;;21.39;73.67;99183.19;5071580;28;20198;-65
2022/06/13 02:26:35;;;;;;;3.73;3.43;;;;;;;;;;5071590;28;20192;-64
2022/06/13 02:29:06;;;;;;;4.88;3.60;;;;;;;21.43;73.10;99183.91;5070460;28;20433;-64
2022/06/13 02:31:38;;;;;;;3.73;3.43;;;;;;;21.44;73.23;99185.63;5071767;28;20206;-65
2022/06/13 02:34:13;;;;;;;4.27;3.33;;;;;;;21.47;72.94;99185.53;5071489;28;20598;-64
2022/06/13 02:36:46;;;;;;;4.53;3.57;;;;;;;21.42;73.72;99187.47;5071656;28;20187;-64
2022/06/13 02:39:18;;;;;;;5.40;3.17;;;;;;;21.24;74.38;99188.88;5071220;28;20658;-65
2022/06/13 02:41:51;;;;;;;4.70;4.13;;;;;;;21.29;74.27;99194.81;5071398;28;20219;-64
2022/06/13 02:44:25;;;;;;;4.57;4.27;;;;;;;21.27;74.53;99194.03;5071120;28;20195;-65
2022/06/13 02:46:57;;;;;;;6.40;3.80;;;;;;;21.29;74.49;99191.38;5071268;28;20199;-65
2022/06/13 02:49:30;;;;;;;4.03;3.63;;;;;;;21.26;74.47;99197.53;5071398;28;20563;-65
2022/06/13 02:52:05;;;;;;;3.63;3.33;;;;;;;21.23;74.14;99200.25;5071717;28;20191;-64
2022/06/13 02:54:37;;;;;;;4.67;3.67;;;;;;;21.17;74.60;99195.22;5051141;28;20188;-64
2022/06/13 02:57:25;;;;;;;4.40;3.83;;;;;;;21.26;73.87;99192.31;5051436;28;20203;-64
2022/06/13 03:00:21;;;;;;;4.40;4.00;;;;;;;21.30;73.37;99183.47;5051252;28;20201;-64
2022/06/13 03:03:10;;;;;;;4.20;3.77;;;;;;;21.23;74.18;99192.44;5050034;28;20216;-64
2022/06/13 03:05:47;;;;;;;3.83;3.43;;;;;;;21.24;74.17;99186.28;5050931;28;20199;-64
2022/06/13 03:08:32;;;;;;;5.93;3.63;;;;;;;21.18;74.67;99183.84;5050528;28;20200;-64
2022/06/13 03:11:05;;;;;;;6.90;3.80;;;;;;;21.03;74.71;99174.72;5050733;28;20281;-64
2022/06/13 03:13:41;;;;;;;3.70;3.40;;;;;;;21.15;74.77;99191.81;5051228;28;20203;-65
2022/06/13 03:16:18;;;;;;;5.27;3.80;;;;;;;21.20;73.78;99191.66;5050659;28;20187;-65
2022/06/13 03:18:49;;;;;;;3.80;3.50;;;;;;;21.22;73.77;99188.09;5050804;28;20199;-65
2022/06/13 03:21:24;;;;;;;3.73;3.30;;;;;;;21.16;73.70;99183.91;5049560;28;20228;-64
2022/06/13 03:23:56;;;;;;;4.87;3.63;;;;;;;20.96;73.36;99146.19;5050787;28;20199;-56
2022/06/13 03:26:27;;;;;;;8.83;3.90;;;;;;;21.27;72.85;99191.41;5050428;28;20203;-56
2022/06/13 03:29:00;;;;;;;4.18;3.78;;;;;;;21.30;72.90;99186.09;5049601;28;20450;-56
2022/06/13 03:31:34;;;;;;;4.03;3.73;;;;;;;21.39;71.84;99184.94;5050394;28;20192;-57
2022/06/13 03:34:06;;;;;;;4.30;3.33;;;;;;;21.43;71.94;99197.84;5050964;28;20196;-56
2022/06/13 03:36:38;;;;;;;3.67;3.40;;;;;;;21.50;72.10;99188.91;5050534;28;20286;-56
2022/06/13 03:39:12;;;;;;;5.90;3.67;;;;;;;21.48;71.95;99190.72;5050213;28;20196;-57
2022/06/13 03:41:44;;;;;;;5.73;3.47;;;;;;;21.50;72.37;99202.00;5067110;28;20227;-57
2022/06/13 03:44:15;;;;;;;4.10;3.70;;;;;;;21.54;73.06;99195.75;5068247;28;20202;-57
2022/06/13 03:46:46;;;;;;;4.37;3.97;;;;;;;21.52;72.75;99191.47;5065414;28;20191;-58
2022/06/13 03:49:20;;;;;;;4.23;3.93;;;;;;;21.60;73.11;99192.94;5070528;28;20196;-57
2022/06/13 03:51:52;;;;;;;8.73;3.97;;;;;;;21.53;72.39;99196.66;5070381;28;20200;-56
2022/06/13 03:54:23;;;;;;;4.10;3.60;;;;;;;21.56;71.95;99207.00;5069694;28;20191;-64
2022/06/13 03:56:56;;;;;;;3.77;3.47;;;;;;;21.61;72.25;99205.13;5064963;28;20206;-65
2022/06/13 03:59:29;;;;;;;6.50;3.70;;;;;;;21.69;72.25;99210.09;5069623;28;20187;-65
2022/06/13 04:02:02;;;;;;;4.23;3.83;;;;;;;21.71;72.33;99206.50;5067241;28;20210;-64
2022/06/13 04:04:36;;;;;;;5.37;3.63;;;;;;;21.68;71.84;99214.44;5069738;28;20191;-65
2022/06/13 04:07:05;;;;;;;5.80;3.60;;;;;;;21.63;71.53;99212.91;5069739;28;20191;-65
2022/06/13 04:09:34;;;;;;;4.50;3.93;;;;;;;21.61;71.86;99214.72;5069578;28;20223;-65
2022/06/13 04:12:24;;;;;;;4.17;3.77;;;;;;;21.63;72.03;99216.38;5069726;28;20192;-65
2022/06/13 04:15:08;;;;;;;5.73;3.87;;;;;;;21.59;71.91;99214.75;5069097;28;20673;-64
2022/06/13 04:17:43;;;;;;;7.37;4.17;;;;;;;21.61;71.64;99218.19;5070000;28;20191;-64
2022/06/13 04:20:20;;;;;;;3.97;3.23;;;;;;;21.57;71.40;99213.09;5069829;28;20633;-66
2022/06/13 04:22:53;;;;;;;5.13;4.07;;;;;;;21.63;71.81;99216.38;5073909;28;20222;-65
2022/06/13 04:25:26;;;;;;;4.17;3.67;;;;;;;21.63;71.11;99215.50;5074381;28;20202;-65
2022/06/13 04:28:00;;;;;;;4.43;4.03;;;;;;;21.64;71.15;99222.47;5073879;28;20912;-65
2022/06/13 04:30:30;;;;;;;5.67;5.07;;;;;;;21.67;71.72;99215.34;5073669;28;20191;-65
2022/06/13 04:33:03;;;;;;;4.57;4.10;;;;;;;21.72;71.41;99223.06;5073384;28;20261;-65
2022/06/13 04:35:33;;;;;;;6.40;3.93;;;;;;;21.64;71.62;99217.22;5073855;28;20191;-65
2022/06/13 04:38:04;;;;;;;4.00;3.70;;;;;;;21.73;70.85;99219.53;5073766;28;20203;-65
2022/06/13 04:40:34;;;;;;;6.77;4.13;;;;;;;21.79;70.81;99227.16;5073706;28;20203;-65
2022/06/13 04:43:03;;;;;;;5.13;3.73;;;;;;;21.89;70.52;99223.38;5073459;28;20223;-65
2022/06/13 04:45:38;;;;;;;4.73;3.93;;;;;;;22.09;69.80;99222.69;5073331;28;20677;-65
2022/06/13 04:48:05;;;;;;;6.47;3.77;;;;;;;22.17;69.63;99237.22;5073098;28;20186;-64
2022/06/13 04:50:36;;;;;;;5.93;4.47;;;;;;;22.32;69.60;99231.47;5073454;28;20200;-65
2022/06/13 04:53:08;;;;;;;4.67;4.27;;;;;;;22.44;69.12;99231.94;5073556;28;20208;-65
2022/06/13 04:55:41;;;;;;;4.07;3.50;;;;;;;22.37;69.89;99241.75;5073337;28;20199;-65
2022/06/13 04:58:19;;;;;;;5.47;3.83;;;;;;;22.46;69.37;99235.34;5073250;28;20628;-65
2022/06/13 05:00:48;;;;;;;4.30;3.83;;;;;;;22.51;69.12;99230.78;5073096;28;20195;-65
2022/06/13 05:03:21;;;;;;;9.47;4.00;;;;;;;22.53;68.95;99223.72;5072954;28;20219;-65
2022/06/13 05:05:52;;;;;;;4.70;4.23;;;;;;;22.54;69.42;99228.06;5073109;28;20237;-65
2022/06/13 05:08:25;;;;;;;4.40;4.10;;;;;;;22.64;69.17;99226.84;5072030;28;20207;-65
2022/06/13 05:10:55;;;;;;;8.00;4.40;;;;;;;22.79;68.98;99231.53;5072875;28;20234;-65
2022/06/13 05:13:25;;;;;;;5.67;3.90;;;;;;;22.76;69.05;99232.50;5072679;28;20202;-65
2022/06/13 05:16:00;;;;;;;4.47;4.07;;;;;;;22.86;68.35;99233.00;5072622;28;20188;-65
2022/06/13 05:18:47;;;;;;;4.07;3.70;;;;;;;22.92;68.21;99233.63;5072635;28;20191;-65
2022/06/13 05:21:30;;;;;;;4.93;3.53;;;;;;;22.94;68.18;99228.31;5071683;28;20680;-65
2022/06/13 05:24:22;;;;;;;5.93;4.37;;;;;;;22.98;69.07;99231.69;5072731;28;20231;-65
2022/06/13 05:26:49;;;;;;;4.60;4.03;;;;;;;23.10;68.88;99231.22;5072147;28;20195;-65
2022/06/13 05:29:16;;;;;;;4.88;4.47;;;;;;;23.24;68.94;99229.75;5071093;28;20820;-65
2022/06/13 05:31:44;;;;;;;4.90;4.10;;;;;;;23.28;67.76;99217.38;5071682;28;20209;-65
2022/06/13 05:34:31;;;;;;;9.03;4.60;;;;;;;23.35;67.94;99221.44;5071963;28;20188;-66
2022/06/13 05:36:58;;;;;;;4.37;3.90;;;;;;;23.49;67.07;99225.28;5068878;28;20197;-65
2022/06/13 05:39:26;;;;;;;5.27;4.70;;;;;;;23.55;67.41;99223.31;5071706;28;20183;-65
2022/06/13 05:41:53;;;;;;;5.37;4.40;;;;;;;23.72;67.15;99232.22;5069877;28;20192;-65
2022/06/13 05:44:20;;;;;;;4.97;4.30;;;;;;;23.69;66.34;99221.84;5071677;28;20219;-65
2022/06/13 05:46:47;;;;;;;10.55;4.75;;;;;;;23.73;66.68;99219.97;5071816;28;20437;-65
2022/06/13 05:49:14;;;;;;;7.17;3.90;;;;;;;23.77;66.17;99224.13;5071730;28;20571;-65
2022/06/13 05:51:42;;;;;;;8.03;4.80;;;;;;;23.79;66.68;99219.69;5071640;28;20609;-65
2022/06/13 05:54:09;;;;;;;5.23;4.23;;;;;;;23.79;66.46;99223.16;5071820;28;20215;-65
2022/06/13 05:56:39;;;;;;;9.50;4.57;;;;;;;23.83;66.31;99227.38;5071564;28;20207;-65
2022/06/13 05:59:06;;;;;;;6.33;4.47;;;;;;;23.91;66.72;99222.66;5071380;28;20244;-65
2022/06/13 06:01:35;;;;;;;7.23;5.57;;;;;;;24.01;65.97;99223.97;5071453;28;20630;-64
2022/06/13 06:04:02;;;;;;;5.87;4.30;;;;;;;24.12;66.19;99214.84;5071721;28;20306;-66
2022/06/13 06:06:31;;;;;;;4.87;4.37;;;;;;;24.26;65.79;99217.69;5071833;28;20195;-65
2022/06/13 06:08:59;;;;;;;5.00;4.60;;;;;;;24.24;65.03;99215.16;5071462;28;20236;-65
2022/06/13 06:11:28;;;;;;;5.57;5.07;;;;;;;24.12;65.46;99218.28;5071751;28;20270;-65
2022/06/13 06:13:57;;;;;;;6.73;5.07;;;;;;;24.22;66.20;99227.50;5071678;28;20188;-65
2022/06/13 06:16:26;;;;;;;8.43;5.10;;;;;;;24.27;66.62;99228.13;5071479;28;20191;-66
2022/06/13 06:18:53;;;;;;;5.40;4.90;;;;;;;24.37;65.91;99231.19;5071679;28;21009;-64
2022/06/13 06:21:20;;;;;;;7.23;4.90;;;;;;;24.38;64.69;99236.41;5070325;28;20204;-65
2022/06/13 06:23:47;;;;;;;6.70;5.40;;;;;;;24.42;64.85;99230.09;5071290;28;20305;-65
2022/06/13 06:26:16;;;;;;;8.38;5.05;;;;;;;24.47;64.07;99225.50;5070812;28;20851;-65
2022/06/13 06:28:43;;;;;;;5.17;4.77;;;;;;;24.56;63.42;99227.69;5070944;28;20190;-65
2022/06/13 06:31:12;;;;;;;6.40;5.23;;;;;;;24.71;63.67;99236.69;5070959;28;20211;-66
2022/06/13 06:33:38;;;;;;;4.90;4.40;;;;;;;24.77;63.04;99235.53;5071245;28;20190;-66
2022/06/13 06:36:06;;;;;;;7.10;4.70;;;;;;;24.83;62.18;99232.69;5069890;28;20202;-65
2022/06/13 06:38:33;;;;;;;5.93;5.27;;;;;;;24.84;61.95;99229.09;5068272;28;20261;-66
2022/06/13 06:41:00;;;;;;;6.20;5.33;;;;;;;24.81;62.41;99230.09;5071065;28;20223;-66
2022/06/13 06:43:27;;;;;;;6.00;5.50;;;;;;;24.86;61.42;99227.28;5070131;28;20750;-66
2022/06/13 06:45:53;;;;;;;7.10;5.33;;;;;;;24.94;61.98;99228.59;5068943;28;20196;-65
2022/06/13 06:48:24;;;;;;;8.70;5.60;;;;;;;24.98;62.36;99219.66;5066839;28;20202;-66
2022/06/13 06:50:52;;;;;;;5.30;4.80;;;;;;;24.97;60.98;99230.28;5068456;28;20199;-66
2022/06/13 06:53:20;;;;;;;5.23;4.77;;;;;;;25.12;61.14;99235.66;5070099;28;20200;-66
2022/06/13 07:01:18;;;;;;;5.07;4.63;;;;;;;25.46;58.79;99231.44;5070665;28;20244;-65
2022/06/13 07:03:47;;;;;;;6.57;4.67;;;;;;;25.40;59.57;99219.41;5070339;28;20215;-65
2022/06/13 07:06:15;;;;;;;5.50;5.00;;;;;;;25.51;59.35;99227.69;5070458;28;20214;-64
2022/06/13 07:08:43;;;;;;;5.53;4.63;;;;;;;25.63;57.98;99228.84;5066108;28;20191;-63
2022/06/13 07:14:01;;;;;;;10.77;4.83;;;;;;;25.71;57.03;99222.28;5065337;28;20178;-65
2022/06/13 07:16:28;;;;;;;6.00;4.93;;;;;;;25.75;57.32;99222.97;5066025;28;20213;-65
2022/06/13 07:18:56;;;;;;;5.90;4.53;;;;;;;25.70;57.17;99225.84;5069708;28;20638;-65
2022/06/13 07:21:24;;;;;;;5.53;5.00;;;;;;;25.86;57.89;99231.19;5070272;28;20187;-65
2022/06/13 07:23:50;;;;;;;4.90;4.50;;;;;;;26.01;57.67;99233.06;5069540;28;20590;-65
2022/06/13 07:26:17;;;;;;;5.47;4.97;;;;;;;26.05;57.07;99233.75;5064615;28;20187;-65
2022/06/13 07:28:44;;;;;;;6.95;4.75;;;;;;;26.13;56.32;99242.09;5069162;28;20437;-66
2022/06/13 07:31:19;;;;;;;5.80;4.73;;;;;;;26.17;56.23;99247.19;5070187;28;20733;-65
2022/06/13 07:33:46;;;;;;;6.07;5.03;;;;;;;26.07;57.48;99251.16;5067715;28;20214;-65
2022/06/13 07:36:15;;;;;;;5.17;4.67;;;;;;;26.09;56.38;99243.22;5069505;28;20290;-65
2022/06/13 07:38:42;;;;;;;5.33;4.83;;;;;;;26.12;57.05;99243.06;5067351;28;20206;-65
2022/06/13 07:41:15;;;;;;;7.40;4.93;;;;;;;26.20;56.56;99240.91;5065355;28;20247;-65
2022/06/13 07:43:43;;;;;;;6.03;5.10;;;;;;;26.29;56.66;99245.69;5067578;28;20214;-65
2022/06/13 07:46:12;;;;;;;5.53;5.00;;;;;;;26.34;56.34;99247.16;5069541;28;20245;-66
2022/06/13 07:48:39;;;;;;;6.28;5.20;;;;;;;26.47;55.87;99249.16;5063992;28;20460;-66
2022/06/13 07:51:06;;;;;;;5.53;4.50;;;;;;;26.60;55.11;99239.69;5064742;28;20198;-66
2022/06/13 07:53:35;;;;;;;5.63;5.13;;;;;;;26.86;55.03;99236.53;5069504;28;20187;-65
2022/06/13 07:56:02;;;;;;;5.63;5.13;;;;;;;26.92;54.67;99238.81;5068966;28;20198;-66
2022/06/13 07:58:33;;;;;;;5.57;5.07;;;;;;;26.93;53.99;99237.91;5069161;28;20191;-65
2022/06/13 08:01:00;;;;;;;7.27;4.60;;;;;;;27.01;53.76;99248.03;5069257;28;20285;-65
2022/06/13 08:03:29;;;;;;;6.35;5.75;;;;;;;27.23;53.42;99245.91;5069522;28;20200;-65
2022/06/13 08:05:57;;;;;;;9.60;5.90;;;;;;;27.33;52.06;99250.59;5066566;28;20237;-65
2022/06/13 08:08:25;;;;;;;6.22;5.60;;;;;;;27.41;50.33;99244.94;5069228;28;20202;-65
2022/06/13 08:10:55;;;;;;;4.90;4.50;;;;;;;27.35;50.22;99240.81;5069141;28;21124;-65
2022/06/13 08:13:23;;;;;;;6.20;5.40;;;;;;;27.37;49.29;99246.84;5069457;28;20233;-66
2022/06/13 08:15:51;;;;;;;5.83;5.23;;;;;;;27.58;50.33;99249.25;5069425;28;20204;-66
2022/06/13 08:18:19;;;;;;;7.37;4.87;;;;;;;27.78;51.20;99239.25;5069349;28;20203;-65
2022/06/13 08:20:46;;;;;;;5.37;4.70;;;;;;;27.88;50.72;99244.88;5068264;28;20235;-66
2022/06/13 08:23:15;;;;;;;6.97;4.73;;;;;;;27.97;50.97;99255.72;5068924;28;20741;-66
2022/06/13 08:25:43;;;;;;;5.63;5.10;;;;;;;28.03;50.80;99249.25;5068169;28;20191;-65
2022/06/13 08:28:13;;;;;;;5.60;5.10;;;;;;;27.91;50.62;99244.66;5068276;28;20634;-57
2022/06/13 08:30:46;;;;;;;5.17;4.70;;;;;;;28.12;51.88;99259.31;5068276;28;20286;-57
2022/06/13 08:33:13;;;;;;;6.47;4.72;;;;;;;28.23;50.74;99251.59;5068896;28;20266;-57
2022/06/13 08:35:40;;;;;;;6.43;4.80;;;;;;;28.35;50.58;99250.84;5068998;28;20635;-56
2022/06/13 08:38:07;;;;;;;8.02;4.35;;;;;;;28.15;47.61;99255.63;5068838;28;20188;-57
2022/06/13 08:40:44;;;;;;;6.07;4.53;;;;;;;28.12;48.14;99211.75;5069198;28;20206;-57
2022/06/13 08:43:27;;;;;;;5.00;4.38;;;;;;;28.20;49.27;99243.84;5067321;28;20256;-56
2022/06/13 08:46:02;;;;;;;7.05;4.78;;;;;;;28.03;49.82;99252.75;5066982;28;20225;-56
2022/06/13 08:48:36;;;;;;;7.85;5.28;;;;;;;28.07;51.27;99256.09;5068131;28;20191;-57
2022/06/13 08:51:08;;;;;;;5.60;4.70;;;;;;;28.06;48.21;99242.00;5067541;28;20465;-56
2022/06/13 08:53:43;;;;;;;5.18;4.65;;;;;;;28.22;49.16;99257.81;5068882;28;20229;-57
2022/06/13 08:56:13;;;;;;;5.20;4.68;;;;;;;28.45;48.67;99248.50;5065149;28;20196;-57
2022/06/13 08:58:47;;;;;;;5.65;4.55;;;;;;;28.51;48.87;99250.78;5049300;28;20196;-56
2022/06/13 09:01:19;;;;;;;6.97;4.78;;;;;;;28.53;48.92;99254.19;5049094;28;20200;-57
2022/06/13 09:03:54;;;;;;;6.68;5.10;;;;;;;28.55;48.67;99253.13;5048672;28;20231;-57
2022/06/13 09:06:28;;;;;;;6.78;5.75;;;;;;;28.35;47.83;99205.91;5060322;28;20199;-58
2022/06/13 09:09:03;;;;;;;5.20;4.80;;;;;;;28.62;48.10;99264.19;5070503;28;20673;-58
2022/06/13 09:11:37;;;;;;;6.38;5.20;;;;;;;28.66;44.07;99260.44;5072175;28;20194;-57
2022/06/13 09:14:12;;;;;;;8.98;4.82;;;;;;;28.83;44.16;99256.75;5062547;28;20206;-57
2022/06/13 09:16:43;;;;;;;7.70;5.85;;;;;;;28.94;46.31;99257.81;5052207;28;20187;-58
2022/06/13 09:19:18;;;;;;;5.40;4.90;;;;;;;28.97;45.27;99254.13;5052177;28;20235;-57
2022/06/13 09:21:52;;;;;;;5.60;5.10;;;;;;;29.08;46.21;99254.28;5065447;28;20682;-58
2022/06/13 09:24:27;;;;;;;5.20;4.70;;;;;;;29.07;42.93;99266.66;5070976;28;20654;-57
2022/06/13 09:27:00;;;;;;;5.85;5.28;;;;;;;29.01;44.15;99267.03;5072189;28;20249;-57
2022/06/13 09:29:35;;;;;;;6.35;5.43;;;;;;;28.78;42.88;99264.13;5071457;28;20939;-57
2022/06/13 09:32:11;;;;;;;5.85;5.35;;;;;;;28.68;42.79;99266.47;5069651;28;20206;-58
2022/06/13 09:34:43;;;;;;;5.95;5.40;;;;;;;28.89;42.51;99266.97;5060893;28;20231;-57
2022/06/13 09:37:14;;;;;;;6.32;4.82;;;;;;;28.90;42.56;99266.84;5051779;28;20201;-57
2022/06/13 09:39:42;;;;;;;6.50;4.88;;;;;;;29.04;42.69;99264.22;5051597;28;20215;-57
2022/06/13 09:42:43;;;;;;;7.28;5.00;;;;;;;29.05;43.12;99259.78;5063972;28;20642;-58
2022/06/13 09:45:37;;;;;;;6.30;5.70;;;;;;;29.10;43.95;99262.97;5052550;28;20231;-57
2022/06/13 09:48:14;;;;;;;6.72;5.13;;;;;;;29.42;43.87;99253.03;5051498;28;20720;-57
2022/06/13 09:50:50;;;;;;;5.80;5.30;;;;;;;29.63;41.31;99254.28;5050965;28;20450;-57
2022/06/13 09:53:28;;;;;;;9.23;5.57;;;;;;;29.80;42.14;99244.28;5051594;28;20208;-56
2022/06/13 09:56:01;;;;;;;11.38;7.28;;;;;;;29.72;43.03;99243.91;5051118;28;20203;-57
2022/06/13 09:58:47;;;;;;;6.57;5.63;;;;;;;29.68;40.36;99253.03;5064368;28;20203;-57
2022/06/13 10:01:23;;;;;;;7.07;6.38;;;;;;;29.80;40.39;99248.75;5067074;28;20187;-57
2022/06/13 10:03:55;;;;;;;6.90;4.90;;;;;;;30.02;40.10;99248.16;5051329;28;20255;-57
2022/06/13 10:06:28;;;;;;;10.85;5.70;;;;;;;30.27;40.70;99243.75;5051892;28;20991;-57
2022/06/13 10:09:07;;;;;;;7.65;5.75;;;;;;;30.33;41.08;99245.13;5051835;28;20287;-57
2022/06/13 10:11:44;;;;;;;6.70;5.97;;;;;;;30.26;40.62;99242.06;5065813;28;20195;-57
2022/06/13 10:14:37;;;;;;;10.15;5.93;;;;;;;30.22;40.98;99245.00;5069934;28;20282;-57
2022/06/13 10:17:31;;;;;;;6.32;5.82;;;;;;;30.14;40.98;99248.19;5065548;28;20227;-57
2022/06/13 10:20:05;;;;;;;7.68;5.68;;;;;;;29.99;40.58;99251.03;5068877;28;20213;-57
2022/06/13 10:22:41;;;;;;;7.57;6.15;;;;;;;30.18;39.26;99241.72;5068756;28;20199;-57
2022/06/13 10:25:22;;;;;;;8.07;6.50;;;;;;;30.22;41.07;99243.22;5070925;28;20226;-57
2022/06/13 10:28:02;;;;;;;6.70;6.07;;;;;;;30.17;41.25;99236.53;5066206;28;20447;-57
2022/06/13 10:30:43;;;;;;;6.65;6.10;;;;;;;30.12;39.58;99236.00;5069753;28;20654;-56
2022/06/13 10:33:23;;;;;;;6.57;5.97;;;;;;;30.32;40.89;99225.75;5070842;28;20282;-56
2022/06/13 10:35:54;;;;;;;9.82;6.53;;;;;;;30.51;40.67;99221.84;5070437;28;20194;-56
2022/06/13 10:38:37;;;;;;;7.78;6.35;;;;;;;30.27;40.56;99225.19;5068533;28;20208;-56
2022/06/13 10:41:04;;;;;;;6.13;5.57;;;;;;;30.17;41.21;99218.81;5070681;28;20194;-57
2022/06/13 10:43:32;;;;;;;7.22;6.43;;;;;;;29.85;40.49;99222.81;5067690;28;20249;-57
2022/06/13 10:45:59;;;;;;;6.88;6.18;;;;;;;29.71;41.40;99218.41;5070038;28;20267;-57
2022/06/13 10:48:35;;;;;;;7.35;5.85;;;;;;;29.67;40.58;99211.59;5070138;28;20199;-56
2022/06/13 10:51:05;;;;;;;7.55;6.43;;;;;;;29.71;42.49;99210.44;5070225;28;20662;-55
2022/06/13 10:53:39;;;;;;;6.72;6.10;;;;;;;29.66;41.98;99204.59;5069669;28;20182;-57
2022/06/13 10:56:11;;;;;;;7.90;6.60;;;;;;;29.74;42.36;99201.44;5067728;28;20731;-55
2022/06/13 10:58:42;;;;;;;7.18;6.35;;;;;;;29.74;43.47;99201.44;5074960;28;20511;-56
2022/06/13 11:01:13;;;;;;;9.57;6.63;;;;;;;29.83;42.57;99200.00;5069634;28;20202;-56
2022/06/13 11:03:59;;;;;;;6.75;6.20;;;;;;;29.86;42.00;99197.16;5067699;28;20188;-56
2022/06/13 11:06:33;;;;;;;11.80;7.45;;;;;;;29.85;42.94;99190.16;5068718;28;20190;-56
2022/06/13 11:09:03;;;;;;;7.47;6.72;;;;;;;29.85;41.65;99193.66;5067988;28;20216;-57
2022/06/13 11:11:33;;;;;;;9.07;7.10;;;;;;;29.88;41.85;99190.81;5070285;28;20195;-57
2022/06/13 11:14:01;;;;;;;7.40;6.38;;;;;;;29.87;40.37;99189.09;5070487;28;20188;-56
2022/06/13 11:25:04;;;;;;;7.43;6.68;;;;;;;30.24;40.20;99182.97;5064536;28;20487;-57
2022/06/13 11:27:42;;;;;;;9.00;6.72;;;;;;;30.35;40.55;99174.31;5063749;28;20725;-57
2022/06/13 11:30:34;;;;;;;8.98;6.97;;;;;;;30.17;41.65;99151.69;5062813;28;20192;-57
2022/06/13 11:33:03;;;;;;;7.20;6.57;;;;;;;30.34;40.43;99172.59;5052924;28;20441;-57
2022/06/13 11:35:37;;;;;;;7.53;6.82;;;;;;;30.24;40.64;99171.53;5069534;28;20195;-56
2022/06/13 11:38:15;;;;;;;6.93;6.25;;;;;;;30.15;40.52;99173.03;5057742;28;20191;-57
2022/06/13 11:40:43;;;;;;;6.97;6.38;;;;;;;30.20;40.74;99167.41;5069668;28;20210;-57
2022/06/13 11:43:19;;;;;;;7.32;6.70;;;;;;;30.14;40.70;99170.47;5070060;28;20195;-56
2022/06/13 11:45:56;;;;;;;7.50;5.97;;;;;;;30.20;39.85;99155.00;5055625;28;20219;-57
2022/06/13 11:48:23;;;;;;;7.93;7.18;;;;;;;30.30;40.49;99155.19;5069379;28;20260;-57
2022/06/13 11:50:56;;;;;;;7.93;6.93;;;;;;;30.69;39.85;99157.72;5069619;28;20203;-57
2022/06/13 11:53:38;;;;;;;7.10;6.35;;;;;;;31.16;39.75;99148.16;5069634;28;20638;-57
2022/06/13 11:56:11;;;;;;;7.60;6.90;;;;;;;31.54;38.69;99151.50;5067506;28;20196;-57
2022/06/13 11:58:42;;;;;;;7.70;6.97;;;;;;;31.71;37.55;99143.13;5056804;28;20242;-57
2022/06/13 12:01:30;;;;;;;11.73;10.73;;;;;;;31.88;37.04;99140.03;5054457;28;20257;-57
2022/06/13 12:04:03;;;;;;;8.48;7.72;;;;;;;32.08;37.03;99133.22;5048776;28;20625;-57
2022/06/13 12:06:37;;;;;;;7.85;7.00;;;;;;;32.09;35.98;99122.44;5050437;28;20210;-57
2022/06/13 12:09:14;;;;;;;7.43;6.78;;;;;;;32.13;37.14;99117.75;5061940;28;20238;-57
2022/06/13 12:11:46;;;;;;;7.75;6.70;;;;;;;32.17;36.25;99124.50;5069496;28;20271;-57
2022/06/13 12:14:14;;;;;;;9.00;6.88;;;;;;;32.19;37.20;99124.41;5069563;28;20569;-58
2022/06/13 12:16:50;;;;;;;7.13;6.53;;;;;;;32.28;36.89;99121.03;5069189;28;20198;-57
2022/06/13 12:19:39;;;;;;;8.38;7.57;;;;;;;32.15;36.50;99117.59;5069516;28;20198;-57